createdAt,value
2023-05-17T00:00:11.655Z,13.23
2023-05-17T00:02:38.200Z,12.17
2023-05-17T00:05:05.440Z,12.20
2023-05-17T00:07:32.085Z,12.60
2023-05-17T00:09:58.849Z,12.87
2023-05-17T00:12:25.502Z,12.60
2023-05-17T00:14:53.620Z,12.30
2023-05-17T00:17:20.177Z,11.03
2023-05-17T00:19:46.945Z,12.03
2023-05-17T00:22:13.611Z,12.20
2023-05-17T00:24:40.182Z,11.80
2023-05-17T00:27:06.862Z,11.90
2023-05-17T00:29:33.467Z,12.20
2023-05-17T00:32:00.151Z,11.20
2023-05-17T00:34:26.779Z,11.57
2023-05-17T00:36:53.443Z,11.60
2023-05-17T00:39:20.093Z,12.77
2023-05-17T00:41:46.788Z,14.20
2023-05-17T00:44:13.310Z,13.10
2023-05-17T00:46:39.917Z,15.00
2023-05-17T00:49:06.565Z,14.13
2023-05-17T00:51:33.670Z,11.97
2023-05-17T00:54:00.603Z,11.77
2023-05-17T00:56:27.340Z,13.10
2023-05-17T00:58:53.980Z,12.80
2023-05-17T01:01:20.928Z,12.20
2023-05-17T01:03:47.973Z,10.70
2023-05-17T01:06:14.869Z,12.20
2023-05-17T01:08:41.587Z,12.00
2023-05-17T01:11:18.730Z,10.33
2023-05-17T01:13:48.161Z,10.23
2023-05-17T01:16:23.412Z,11.10
2023-05-17T01:19:17.045Z,9.93
2023-05-17T01:21:52.756Z,8.90
2023-05-17T01:24:45.849Z,9.37
2023-05-17T01:27:13.243Z,10.13
2023-05-17T01:29:40.298Z,9.67
2023-05-17T01:32:07.615Z,9.10
2023-05-17T01:34:35.307Z,8.83
2023-05-17T01:37:01.925Z,8.10
2023-05-17T01:39:28.565Z,7.77
2023-05-17T01:42:08.036Z,9.70
2023-05-17T01:44:42.332Z,8.00
2023-05-17T01:47:53.840Z,7.07
2023-05-17T01:50:24.355Z,7.00
2023-05-17T01:52:55.585Z,9.57
2023-05-17T01:55:45.881Z,7.50
2023-05-17T01:58:12.890Z,7.20
2023-05-17T02:00:40.605Z,7.73
2023-05-17T02:03:07.592Z,8.00
2023-05-17T02:05:34.238Z,7.40
2023-05-17T02:08:00.881Z,8.17
2023-05-17T02:10:27.475Z,7.70
2023-05-17T02:12:54.068Z,7.60
2023-05-17T02:15:20.566Z,7.97
2023-05-17T02:17:47.308Z,7.47
2023-05-17T02:20:14.237Z,6.10
2023-05-17T02:22:41.075Z,7.10
2023-05-17T02:25:08.215Z,7.50
2023-05-17T02:27:34.820Z,7.40
2023-05-17T02:30:02.293Z,7.57
2023-05-17T02:32:29.269Z,6.00
2023-05-17T02:34:56.475Z,6.30
2023-05-17T02:37:23.151Z,6.77
2023-05-17T02:39:49.697Z,6.07
2023-05-17T02:42:16.386Z,6.77
2023-05-17T02:44:43.025Z,8.30
2023-05-17T02:47:09.954Z,6.47
2023-05-17T02:49:36.723Z,8.10
2023-05-17T02:52:03.697Z,6.90
2023-05-17T02:54:30.357Z,7.80
2023-05-17T02:56:56.943Z,8.50
2023-05-17T02:59:23.513Z,8.63
2023-05-17T03:01:50.603Z,9.13
2023-05-17T03:04:17.561Z,10.50
2023-05-17T03:06:44.308Z,11.70
2023-05-17T03:09:11.190Z,10.13
2023-05-17T03:11:37.952Z,11.40
2023-05-17T03:14:04.660Z,12.10
2023-05-17T03:16:31.330Z,13.57
2023-05-17T03:18:58.127Z,12.13
2023-05-17T03:21:24.802Z,12.87
2023-05-17T03:23:51.516Z,10.60
2023-05-17T03:26:19.820Z,11.67
2023-05-17T03:28:46.442Z,12.53
2023-05-17T03:31:13.275Z,11.50
2023-05-17T03:33:39.902Z,11.07
2023-05-17T03:36:07.529Z,12.87
2023-05-17T03:38:34.221Z,11.33
2023-05-17T03:41:01.101Z,11.83
2023-05-17T03:43:28.774Z,11.03
2023-05-17T03:45:55.350Z,10.03
2023-05-17T03:48:22.063Z,9.87
2023-05-17T03:50:48.642Z,11.50
2023-05-17T03:53:15.349Z,11.00
2023-05-17T03:55:41.992Z,12.00
2023-05-17T03:58:08.545Z,11.50
2023-05-17T04:00:35.192Z,11.87
2023-05-17T04:03:01.888Z,11.83
2023-05-17T04:05:28.841Z,10.80
2023-05-17T04:07:56.090Z,12.90
2023-05-17T04:10:23.338Z,10.97
2023-05-17T04:12:50.104Z,12.30
2023-05-17T04:15:16.734Z,11.60
2023-05-17T04:17:43.614Z,13.87
2023-05-17T04:20:11.116Z,12.40
2023-05-17T04:22:38.039Z,11.60
2023-05-17T04:25:05.141Z,10.77
2023-05-17T04:27:32.111Z,11.97
2023-05-17T04:29:58.982Z,12.00
2023-05-17T04:32:26.005Z,11.60
2023-05-17T04:34:52.676Z,11.20
2023-05-17T04:37:19.474Z,11.67
2023-05-17T04:39:46.158Z,10.93
2023-05-17T04:42:12.664Z,12.00
2023-05-17T04:44:39.324Z,11.67
2023-05-17T04:47:05.965Z,10.47
2023-05-17T04:49:32.537Z,10.50
2023-05-17T04:51:59.352Z,10.40
2023-05-17T04:54:26.481Z,9.40
2023-05-17T04:56:53.079Z,9.83
2023-05-17T04:59:19.591Z,10.33
2023-05-17T05:01:46.231Z,10.67
2023-05-17T05:04:13.000Z,11.00
2023-05-17T05:06:40.959Z,11.00
2023-05-17T05:09:07.826Z,10.87
2023-05-17T05:11:34.547Z,12.03
2023-05-17T05:14:01.096Z,11.10
2023-05-17T05:16:27.865Z,10.97
2023-05-17T05:18:54.617Z,9.60
2023-05-17T05:21:21.418Z,9.20
2023-05-17T05:23:48.070Z,11.07
2023-05-17T05:26:14.648Z,8.40
2023-05-17T05:28:41.177Z,9.80
2023-05-17T05:31:08.019Z,8.80
2023-05-17T05:33:34.878Z,10.87
2023-05-17T05:36:01.749Z,10.17
2023-05-17T05:38:28.429Z,9.67
2023-05-17T05:40:55.165Z,9.00
2023-05-17T05:43:21.742Z,7.60
2023-05-17T05:45:48.569Z,8.80
2023-05-17T05:48:15.194Z,7.20
2023-05-17T05:50:43.428Z,8.60
2023-05-17T05:53:18.811Z,8.30
2023-05-17T05:55:46.339Z,12.00
2023-05-17T05:58:13.003Z,8.97
2023-05-17T06:00:39.610Z,9.20
2023-05-17T06:03:06.606Z,9.30
2023-05-17T06:05:33.441Z,8.77
2023-05-17T06:08:00.300Z,8.40
2023-05-17T06:10:27.263Z,10.47
2023-05-17T06:12:54.320Z,8.10
2023-05-17T06:15:20.886Z,10.00
2023-05-17T06:17:47.620Z,8.33
2023-05-17T06:20:15.224Z,10.27
2023-05-17T06:22:43.106Z,9.23
2023-05-17T06:25:11.455Z,9.90
2023-05-17T06:27:38.176Z,8.27
2023-05-17T06:30:07.325Z,7.93
2023-05-17T06:32:34.331Z,6.73
2023-05-17T06:35:00.965Z,7.40
2023-05-17T06:37:27.744Z,8.73
2023-05-17T06:40:10.090Z,8.40
2023-05-17T06:42:42.120Z,7.70
2023-05-17T06:45:09.231Z,8.70
2023-05-17T06:47:35.906Z,8.90
2023-05-17T06:50:02.567Z,8.30
2023-05-17T06:52:29.214Z,7.73
2023-05-17T06:54:55.911Z,7.47
2023-05-17T06:57:23.765Z,7.80
2023-05-17T06:59:50.490Z,7.50
2023-05-17T07:02:17.260Z,7.40
2023-05-17T07:04:43.924Z,9.27
2023-05-17T07:07:11.620Z,8.63
2023-05-17T07:09:38.529Z,7.33
2023-05-17T07:12:06.193Z,7.87
2023-05-17T07:14:32.902Z,8.33
2023-05-17T07:17:00.488Z,8.40
2023-05-17T07:19:27.819Z,7.80
2023-05-17T07:21:54.596Z,8.10
2023-05-17T07:24:21.475Z,7.50
2023-05-17T07:26:49.299Z,7.97
2023-05-17T07:29:17.513Z,7.90
2023-05-17T07:31:44.164Z,9.10
2023-05-17T07:34:11.009Z,10.57
2023-05-17T07:36:37.771Z,7.50
2023-05-17T07:39:05.372Z,8.70
2023-05-17T07:41:34.051Z,9.80
2023-05-17T07:44:00.743Z,8.13
2023-05-17T07:46:27.441Z,13.70
2023-05-17T07:48:56.526Z,13.00
2023-05-17T07:51:25.153Z,17.70
2023-05-17T07:53:51.763Z,11.73
2023-05-17T07:56:18.323Z,7.60
2023-05-17T07:58:44.960Z,7.60
2023-05-17T08:01:11.714Z,8.20
2023-05-17T08:03:38.682Z,6.90
2023-05-17T08:06:05.636Z,7.03
2023-05-17T08:08:32.336Z,7.20
2023-05-17T08:10:59.005Z,6.20
2023-05-17T08:13:25.496Z,6.20
2023-05-17T08:15:58.387Z,6.50
2023-05-17T08:18:28.277Z,6.50
2023-05-17T08:20:55.081Z,6.33
2023-05-17T08:23:21.717Z,6.27
2023-05-17T08:25:48.457Z,6.13
2023-05-17T08:28:15.007Z,6.60
2023-05-17T08:30:41.984Z,5.80
2023-05-17T08:33:12.191Z,6.60
2023-05-17T08:35:38.883Z,5.87
2023-05-17T08:38:05.413Z,4.93
2023-05-17T08:40:32.331Z,6.90
2023-05-17T08:42:59.346Z,6.63
2023-05-17T08:45:27.747Z,4.90
2023-05-17T08:47:55.679Z,7.20
2023-05-17T08:50:22.431Z,6.23
2023-05-17T08:52:49.639Z,6.33
2023-05-17T08:55:16.590Z,7.63
2023-05-17T08:57:43.699Z,6.87
2023-05-17T09:00:15.134Z,6.07
2023-05-17T09:02:42.937Z,6.07
2023-05-17T09:05:10.842Z,5.50
2023-05-17T09:07:38.078Z,6.00
2023-05-17T09:10:06.012Z,5.50
2023-05-17T09:12:36.180Z,6.00
2023-05-17T09:15:20.004Z,5.80
2023-05-17T09:17:54.054Z,5.43
2023-05-17T09:20:25.011Z,5.80
2023-05-17T09:22:52.153Z,7.40
2023-05-17T09:25:24.237Z,6.43
2023-05-17T09:27:54.378Z,5.57
2023-05-17T09:30:28.023Z,49.70
2023-05-17T09:32:55.731Z,40.33
2023-05-17T09:35:30.450Z,6.10
2023-05-17T09:38:09.166Z,7.80
2023-05-17T09:40:40.327Z,5.97
2023-05-17T09:43:07.385Z,5.50
2023-05-17T09:45:34.848Z,5.73
2023-05-17T09:48:14.603Z,5.80
2023-05-17T09:51:00.683Z,6.33
2023-05-17T09:53:32.263Z,5.60
2023-05-17T09:56:00.532Z,6.03
2023-05-17T09:58:28.924Z,5.83
2023-05-17T10:01:03.853Z,5.67
2023-05-17T10:03:35.706Z,5.30
2023-05-17T10:06:11.282Z,6.37
2023-05-17T10:08:44.786Z,6.20
2023-05-17T10:11:11.595Z,8.57
2023-05-17T10:13:44.975Z,6.40
2023-05-17T10:16:12.367Z,5.10
2023-05-17T10:18:40.833Z,5.47
2023-05-17T10:21:08.711Z,5.87
2023-05-17T10:23:36.223Z,6.17
2023-05-17T10:26:02.834Z,5.67
2023-05-17T10:28:30.765Z,5.30
2023-05-17T10:30:57.913Z,5.53
2023-05-17T10:33:24.987Z,5.13
2023-05-17T10:35:52.369Z,4.83
2023-05-17T10:38:20.459Z,6.10
2023-05-17T10:40:49.193Z,5.37
2023-05-17T10:43:16.206Z,6.17
2023-05-17T10:45:42.888Z,6.60
2023-05-17T10:48:10.259Z,5.60
2023-05-17T10:50:45.028Z,5.73
2023-05-17T10:53:20.795Z,6.90
2023-05-17T10:55:47.913Z,6.80
2023-05-17T10:58:16.204Z,5.50
2023-05-17T11:00:48.356Z,5.90
2023-05-17T11:03:32.071Z,6.33
2023-05-17T11:06:19.428Z,5.80
2023-05-17T11:09:09.495Z,6.73
2023-05-17T11:11:36.751Z,6.93
2023-05-17T11:14:04.720Z,6.50
2023-05-17T11:16:36.291Z,6.10
2023-05-17T11:19:11.112Z,6.17
2023-05-17T11:21:47.894Z,5.63
2023-05-17T11:24:17.108Z,5.43
2023-05-17T11:26:46.179Z,6.33
2023-05-17T11:29:13.077Z,6.43
2023-05-17T11:31:46.608Z,5.70
2023-05-17T11:34:13.503Z,7.43
2023-05-17T11:36:53.864Z,7.03
2023-05-17T11:39:22.231Z,6.50
2023-05-17T11:41:51.331Z,6.30
2023-05-17T11:44:25.763Z,6.27
2023-05-17T11:47:00.492Z,8.40
2023-05-17T11:52:00.666Z,6.50
2023-05-17T11:54:27.319Z,7.67
2023-05-17T11:56:54.414Z,6.70
2023-05-17T11:59:21.505Z,7.10
2023-05-17T12:01:51.771Z,6.43
2023-05-17T12:04:26.308Z,8.03
2023-05-17T12:06:56.341Z,8.10
2023-05-17T12:09:23.430Z,6.97
2023-05-17T12:11:50.239Z,8.57
2023-05-17T12:14:18.029Z,6.93
2023-05-17T12:16:45.629Z,7.87
2023-05-17T12:19:23.448Z,6.87
2023-05-17T12:21:50.748Z,7.57
2023-05-17T12:24:17.755Z,6.37
2023-05-17T12:26:46.123Z,6.53
2023-05-17T12:29:18.073Z,6.60
2023-05-17T12:31:50.208Z,6.20
2023-05-17T12:34:17.734Z,7.50
2023-05-17T12:36:44.781Z,6.37
2023-05-17T12:39:13.816Z,6.27
2023-05-17T12:41:41.057Z,7.07
2023-05-17T12:44:15.400Z,6.43
2023-05-17T12:46:42.971Z,6.20
2023-05-17T12:49:13.612Z,6.30
2023-05-17T12:51:52.644Z,6.47
2023-05-17T12:54:29.103Z,6.50
2023-05-17T12:56:56.518Z,5.80
2023-05-17T12:59:25.698Z,5.60
2023-05-17T13:01:55.903Z,5.77
2023-05-17T13:04:35.950Z,5.77
2023-05-17T13:07:04.327Z,6.37
2023-05-17T13:09:32.623Z,7.10
2023-05-17T13:12:02.074Z,6.50
2023-05-17T13:14:47.254Z,6.60
2023-05-17T13:17:35.532Z,6.50
2023-05-17T13:20:06.396Z,7.13
2023-05-17T13:22:34.462Z,7.30
2023-05-17T13:25:04.969Z,7.40
2023-05-17T13:27:31.577Z,6.33
2023-05-17T13:29:59.014Z,6.73
2023-05-17T13:32:26.276Z,7.30
2023-05-17T13:34:53.095Z,6.90
2023-05-17T13:37:21.190Z,7.97
2023-05-17T13:39:47.932Z,7.17
2023-05-17T13:42:14.666Z,7.03
2023-05-17T13:44:44.348Z,7.53
2023-05-17T13:47:11.221Z,7.77
2023-05-17T13:49:37.917Z,7.10
2023-05-17T13:52:08.634Z,7.63
2023-05-17T13:54:38.218Z,8.20
2023-05-17T13:57:06.039Z,7.10
2023-05-17T13:59:32.797Z,7.20
2023-05-17T14:01:59.582Z,7.43
2023-05-17T14:04:26.152Z,6.50
2023-05-17T14:06:56.047Z,7.07
2023-05-17T14:09:22.979Z,6.27
2023-05-17T14:11:49.921Z,6.10
2023-05-17T14:14:16.653Z,6.90
2023-05-17T14:16:43.366Z,6.20
2023-05-17T14:19:10.228Z,6.13
2023-05-17T14:21:36.809Z,7.17
2023-05-17T14:24:06.793Z,5.80
2023-05-17T14:26:33.373Z,6.23
2023-05-17T14:29:00.046Z,5.77
2023-05-17T14:31:29.952Z,5.17
2023-05-17T14:34:01.728Z,5.00
2023-05-17T14:36:28.376Z,5.37
2023-05-17T14:38:54.961Z,5.57
2023-05-17T14:41:22.564Z,6.00
2023-05-17T14:43:49.165Z,5.80
2023-05-17T14:46:16.207Z,6.13
2023-05-17T14:48:42.912Z,5.40
2023-05-17T14:51:09.774Z,5.97
2023-05-17T14:53:36.714Z,6.20
2023-05-17T14:56:03.302Z,7.30
2023-05-17T14:58:29.908Z,10.53
2023-05-17T15:01:05.440Z,5.27
2023-05-17T15:03:33.714Z,5.10
2023-05-17T15:06:01.044Z,5.30
2023-05-17T15:08:28.789Z,4.90
2023-05-17T15:10:58.793Z,5.77
2023-05-17T15:13:25.334Z,6.30
2023-05-17T15:15:53.073Z,5.20
2023-05-17T15:18:20.509Z,5.37
2023-05-17T15:20:47.199Z,5.60
2023-05-17T15:23:13.952Z,4.80
2023-05-17T15:25:43.767Z,5.17
2023-05-17T15:28:10.339Z,5.47
2023-05-17T15:30:37.077Z,4.60
2023-05-17T15:33:03.851Z,4.50
2023-05-17T15:35:30.910Z,5.07
2023-05-17T15:37:58.657Z,5.10
2023-05-17T15:40:25.263Z,4.33
2023-05-17T15:42:52.673Z,4.70
2023-05-17T15:45:21.560Z,4.53
2023-05-17T15:47:50.890Z,5.30
2023-05-17T15:50:20.615Z,4.90
2023-05-17T15:52:48.829Z,4.57
2023-05-17T15:55:15.458Z,4.97
2023-05-17T15:57:42.283Z,4.67
2023-05-17T16:00:09.670Z,4.53
2023-05-17T16:02:36.542Z,3.60
2023-05-17T16:05:04.065Z,4.53
2023-05-17T16:07:31.442Z,3.80
2023-05-17T16:09:58.150Z,5.27
2023-05-17T16:12:24.808Z,4.90
2023-05-17T16:14:52.144Z,5.00
2023-05-17T16:17:18.726Z,3.93
2023-05-17T16:19:45.615Z,5.30
2023-05-17T16:22:13.250Z,5.87
2023-05-17T16:24:40.306Z,5.33
2023-05-17T16:27:08.106Z,4.00
2023-05-17T16:29:40.490Z,3.80
2023-05-17T16:32:08.009Z,3.87
2023-05-17T16:34:34.918Z,4.13
2023-05-17T16:37:04.715Z,4.63
2023-05-17T16:39:31.682Z,3.90
2023-05-17T16:41:58.369Z,3.07
2023-05-17T16:44:25.035Z,4.37
2023-05-17T16:46:51.785Z,3.90
2023-05-17T16:49:18.344Z,3.60
2023-05-17T16:51:45.646Z,7.80
2023-05-17T16:54:12.322Z,6.50
2023-05-17T16:56:39.406Z,5.00
2023-05-17T16:59:08.796Z,5.93
2023-05-17T17:01:35.360Z,13.20
2023-05-17T17:04:03.296Z,21.80
2023-05-17T17:06:30.141Z,9.53
2023-05-17T17:08:56.819Z,4.43
2023-05-17T17:11:23.371Z,4.03
2023-05-17T17:13:50.247Z,5.10
2023-05-17T17:16:17.475Z,4.40
2023-05-17T17:18:44.592Z,4.60
2023-05-17T17:21:11.190Z,4.77
2023-05-17T17:23:38.136Z,4.30
2023-05-17T17:26:04.788Z,5.03
2023-05-17T17:28:32.813Z,4.13
2023-05-17T17:30:59.488Z,4.03
2023-05-17T17:33:26.634Z,3.60
2023-05-17T17:35:53.302Z,4.77
2023-05-17T17:38:20.056Z,4.00
2023-05-17T17:40:46.757Z,4.13
2023-05-17T17:43:13.456Z,4.20
2023-05-17T17:45:40.181Z,3.33
2023-05-17T17:48:06.845Z,3.30
2023-05-17T17:50:34.238Z,3.73
2023-05-17T17:53:01.331Z,4.10
2023-05-17T17:55:27.955Z,4.60
2023-05-17T17:57:54.546Z,4.70
2023-05-17T18:00:21.534Z,4.33
2023-05-17T18:02:48.229Z,4.73
2023-05-17T18:05:14.997Z,3.70
2023-05-17T18:07:41.693Z,4.00
2023-05-17T18:10:08.498Z,4.33
2023-05-17T18:12:35.259Z,3.80
2023-05-17T18:15:01.852Z,4.27
2023-05-17T18:17:28.558Z,4.23
2023-05-17T18:19:55.212Z,3.93
2023-05-17T18:22:21.968Z,3.97
2023-05-17T18:24:49.510Z,3.67
2023-05-17T18:27:18.803Z,3.60
2023-05-17T18:29:45.429Z,3.37
2023-05-17T18:32:12.107Z,2.70
2023-05-17T18:34:38.787Z,3.33
2023-05-17T18:37:05.600Z,3.77
2023-05-17T18:39:32.490Z,3.23
2023-05-17T18:41:59.442Z,4.23
2023-05-17T18:44:26.285Z,4.77
2023-05-17T18:46:54.177Z,4.47
2023-05-17T18:49:21.501Z,3.43
2023-05-17T18:51:48.082Z,3.80
2023-05-17T18:54:14.854Z,7.90
2023-05-17T18:56:42.652Z,5.83
2023-05-17T18:59:09.379Z,4.33
2023-05-17T19:01:37.220Z,3.80
2023-05-17T19:04:04.080Z,4.20
2023-05-17T19:06:32.074Z,4.17
2023-05-17T19:08:59.118Z,5.30
2023-05-17T19:11:28.876Z,5.53
2023-05-17T19:13:55.842Z,5.07
2023-05-17T19:16:22.541Z,4.53
2023-05-17T19:18:50.422Z,8.20
2023-05-17T19:21:17.210Z,8.30
2023-05-17T19:23:44.028Z,8.33
2023-05-17T19:26:10.694Z,5.83
2023-05-17T19:28:37.470Z,6.17
2023-05-17T19:31:04.653Z,5.80
2023-05-17T19:33:32.152Z,5.37
2023-05-17T19:35:58.777Z,4.70
2023-05-17T19:38:25.347Z,5.13
2023-05-17T19:40:51.957Z,5.47
2023-05-17T19:43:18.559Z,6.63
2023-05-17T19:45:45.431Z,5.80
2023-05-17T19:48:12.211Z,5.77
2023-05-17T19:50:38.842Z,5.50
2023-05-17T19:53:05.737Z,5.77
2023-05-17T19:55:34.119Z,4.70
2023-05-17T19:58:03.829Z,6.10
2023-05-17T20:00:32.662Z,7.50
2023-05-17T20:02:59.678Z,6.57
2023-05-17T20:05:27.410Z,7.20
2023-05-17T20:07:54.106Z,7.43
2023-05-17T20:10:21.260Z,6.63
2023-05-17T20:12:48.168Z,6.63
2023-05-17T20:15:14.912Z,6.60
2023-05-17T20:17:41.631Z,6.27
2023-05-17T20:20:08.963Z,7.73
2023-05-17T20:22:37.756Z,6.00
2023-05-17T20:25:04.685Z,4.30
2023-05-17T20:27:31.418Z,4.50
2023-05-17T20:29:58.068Z,5.50
2023-05-17T20:32:24.723Z,6.47
2023-05-17T20:34:51.536Z,5.20
2023-05-17T20:37:18.151Z,5.63
2023-05-17T20:39:44.767Z,5.57
2023-05-17T20:42:17.819Z,4.50
2023-05-17T20:44:45.082Z,4.87
2023-05-17T20:47:11.848Z,5.40
2023-05-17T20:49:38.572Z,4.37
2023-05-17T20:52:05.558Z,5.53
2023-05-17T20:54:32.296Z,6.20
2023-05-17T20:56:59.391Z,6.07
2023-05-17T20:59:26.633Z,5.40
2023-05-17T21:01:53.306Z,5.17
2023-05-17T21:04:19.991Z,5.70
2023-05-17T21:06:47.137Z,5.80
2023-05-17T21:09:15.548Z,5.97
2023-05-17T21:11:42.815Z,6.20
2023-05-17T21:14:09.574Z,6.20
2023-05-17T21:16:36.403Z,4.90
2023-05-17T21:19:03.139Z,4.40
2023-05-17T21:21:29.798Z,4.63
2023-05-17T21:23:56.430Z,4.67
2023-05-17T21:26:23.408Z,5.63
2023-05-17T21:28:49.977Z,5.47
2023-05-17T21:31:16.730Z,4.70
2023-05-17T21:33:43.498Z,5.13
2023-05-17T21:36:10.144Z,5.17
2023-05-17T21:38:36.805Z,4.80
2023-05-17T21:41:03.447Z,4.90
2023-05-17T21:43:30.023Z,4.30
2023-05-17T21:45:56.716Z,4.60
2023-05-17T21:48:23.291Z,5.07
2023-05-17T21:50:49.937Z,5.00
2023-05-17T21:53:16.524Z,3.87
2023-05-17T21:58:12.855Z,3.57
2023-05-17T22:00:39.652Z,3.60
2023-05-17T22:03:06.596Z,4.17
2023-05-17T22:05:33.254Z,4.60
2023-05-17T22:08:00.107Z,5.40
2023-05-17T22:10:27.035Z,5.13
2023-05-17T22:12:54.424Z,6.17
2023-05-17T22:15:22.051Z,4.30
2023-05-17T22:17:52.862Z,4.50
2023-05-17T22:20:23.699Z,4.53
2023-05-17T22:22:50.920Z,5.07
2023-05-17T22:25:17.980Z,5.60
2023-05-17T22:27:45.522Z,6.73
2023-05-17T22:30:12.413Z,5.83
2023-05-17T22:32:40.344Z,4.60
2023-05-17T22:35:07.470Z,5.63
2023-05-17T22:37:34.053Z,5.17
2023-05-17T22:40:00.914Z,4.70
2023-05-17T22:42:27.552Z,5.13
2023-05-17T22:44:54.422Z,5.33
2023-05-17T22:47:23.115Z,4.77
2023-05-17T22:49:52.669Z,4.70
2023-05-17T22:52:19.916Z,5.23
2023-05-17T22:54:46.791Z,6.07
2023-05-17T22:57:13.430Z,5.27
2023-05-17T22:59:40.145Z,5.80
2023-05-17T23:02:06.792Z,5.00
2023-05-17T23:04:33.466Z,4.60
2023-05-17T23:07:02.539Z,5.07
2023-05-17T23:09:40.635Z,5.80
2023-05-17T23:12:08.756Z,6.10
2023-05-17T23:14:36.849Z,6.43
2023-05-17T23:17:04.366Z,5.70
2023-05-17T23:19:32.087Z,5.67
2023-05-17T23:22:03.097Z,4.80
2023-05-17T23:24:29.728Z,5.30
2023-05-17T23:26:56.509Z,5.53
2023-05-17T23:29:24.141Z,5.20
2023-05-17T23:31:50.915Z,6.30
2023-05-17T23:34:17.757Z,5.07
2023-05-17T23:36:44.326Z,5.80
2023-05-17T23:39:10.892Z,5.10
2023-05-17T23:41:40.338Z,4.33
2023-05-17T23:44:07.932Z,5.50
2023-05-17T23:46:34.832Z,6.10
2023-05-17T23:49:02.562Z,6.00
2023-05-17T23:51:29.271Z,6.57
2023-05-17T23:53:56.301Z,5.77
2023-05-17T23:56:23.307Z,5.60
2023-05-17T23:58:50.020Z,5.37
